Amidon, North Dakota
Current Conditions -  °F | °C
As of 11:56 AM on Monday 20 Oct 2014 (Local Time) from KDIK Reporting Station
Clear Clear  
Wind Chill: 20°   Ceiling: Unl
Heat Index: 20°   Visibility: 10mi
Dew Point:   Wind: 20mph
Humidity: 37%   Direction: 170°S
Pressure: 29.96"   Gusts: 29mph
Location:  46.48°N, 103.32°W
Report Text: KDIK 201756Z AUTO 17017G25KT 10SM CLR 20/05 A2996 RMK AO2 PK WND 18026/1741 SLP145 T02000050 10200 20039 58010
Loading
Personal Weather Stations






























Interactive Weather Map
Tropical Storm Tracking
New forecast layout! Learn more

10-Day Weather Forecast

Advertisements
Track Severe Weather on mobile